Elissa — WDD9058 — position and weather

sailwx.info

Track history (hours):
 
Tides and Currents Weather Stations Pressure Air Temp Water Temp Dewpoint Dewpoint Depression Visibility Wind Speed Wind Dir Waves Ship Positions

Elissa

Owner: Ingram Barge Company, Nashville, TN. More information available from US FCC via Universal Licensing System and Coast Guard Vessel Documentation Center.

Last reported at 2015-May-25 18:21 UTC. Time now 2015-May-26 03:40 UTC.
Position N 29°57' W 090°10'.

Length 26 m; draft 3.6 m.

Type: Towing. MMSI: 367306290.

Date/timePositionNaut miles runAvg speedWind from/ knotsBaromVisibWave heightAir tempDewpointWater temp
2015-May-25 18:21N 29°57' W 090°10'1 0.7
2015-May-25 17:31N 29°57' W 090°10'0 0.0
2015-May-25 16:31N 29°57' W 090°10'0 0.0
2015-May-25 15:33N 29°57' W 090°10'1 0.6
2015-May-25 14:32N 29°57' W 090°10'0 0.0
2015-May-25 13:33N 29°57' W 090°10'0 0.0
2015-May-25 12:33N 29°57' W 090°10'0 0.0
2015-May-25 11:29N 29°57' W 090°10'1 0.8
2015-May-25 10:32N 29°56' W 090°10'58 3.4
2015-May-24 17:31N 30°21' W 091°11'7 6.9
2015-May-24 16:33N 30°27' W 091°12'2 2.0
2015-May-24 15:33N 30°26' W 091°12'0 0.1
2015-May-24 14:33N 30°25' W 091°12'2 2.1
2015-May-24 13:33N 30°27' W 091°12'2 2.0
2015-May-24 12:33N 30°26' W 091°12'3 3.4
2015-May-24 11:33N 30°22' W 091°14'2 2.3
2015-May-24 10:33N 30°21' W 091°12'3 3.2
2015-May-24 09:33N 30°19' W 091°09'4 4.0
2015-May-24 08:32N 30°18' W 091°13'5 2.4
2015-May-24 06:16N 30°16' W 091°08'1 1.9
2015-May-24 05:30N 30°15' W 091°07'53 1.4
2015-May-22 16:29N 29°57' W 090°09'54 4.5
2015-May-22 04:32N 30°16' W 091°07'4 2.8
2015-May-22 03:18N 30°19' W 091°10'4 5.6
2015-May-22 02:32N 30°20' W 091°14'8 7.7
2015-May-22 01:34N 30°28' W 091°12'3 2.9
2015-May-22 00:33N 30°31' W 091°12'1 1.3
2015-May-21 23:33N 30°29' W 091°12'4 3.9
2015-May-21 22:33N 30°25' W 091°12'0 0.0
2015-May-21 21:33N 30°25' W 091°12'2 1.8
2015-May-21 20:33N 30°27' W 091°12'3 3.2
2015-May-21 19:33N 30°24' W 091°13'3 3.3
2015-May-21 18:31N 30°21' W 091°12'58 2.1
2015-May-20 15:18N 29°57' W 090°10'53 2.4
2015-May-19 17:24N 30°16' W 091°07'0 0.1
2015-May-19 15:32N 30°16' W 091°07'3 2.7
2015-May-19 14:22N 30°19' W 091°09'6 7.2
2015-May-19 13:33N 30°23' W 091°14'5 5.1
2015-May-19 12:34N 30°28' W 091°12'1 0.7
2015-May-19 11:33N 30°27' W 091°12'0 0.0
2015-May-19 10:33N 30°27' W 091°12'3 3.1
2015-May-19 09:33N 30°24' W 091°13'4 3.6
2015-May-19 08:33N 30°21' W 091°14'3 3.5
2015-May-19 07:33N 30°21' W 091°10'2 1.8
2015-May-19 06:27N 30°19' W 091°11'4 2.0
2015-May-19 04:22N 30°16' W 091°08'3 3.1
2015-May-19 03:21N 30°13' W 091°09'53 2.9
2015-May-18 09:20N 29°56' W 090°11'3 3.6
2015-May-18 08:33N 29°55' W 090°08'5 4.9
2015-May-18 07:26N 29°57' W 090°02'3 3.4
2015-May-18 06:33N 29°56' W 089°59'4 4.1
2015-May-18 05:32N 29°55' W 090°04'5 5.1
2015-May-18 04:29N 29°57' W 090°10'56 4.7
2015-May-17 16:33N 30°20' W 091°09'6 5.7
2015-May-17 15:33N 30°25' W 091°12'2 2.2
2015-May-17 14:33N 30°27' W 091°12'0 0.0
2015-May-17 13:33N 30°27' W 091°12'2 2.3
2015-May-17 12:33N 30°25' W 091°12'5 4.6
2015-May-17 11:33N 30°20' W 091°14'4 4.4
2015-May-17 10:33N 30°20' W 091°09'4 3.9
2015-May-17 09:27N 30°18' W 091°13'5 3.5
2015-May-17 08:07N 30°16' W 091°08'1 1.6
2015-May-17 07:28N 30°16' W 091°07'53 3.0
2015-May-16 13:26N 29°57' W 090°10'0 0.3
2015-May-16 12:34N 29°57' W 090°10'0 0.0
2015-May-16 11:29N 29°57' W 090°10'0 0.0
2015-May-16 10:32N 29°57' W 090°10'54 4.8
2015-May-15 23:18N 30°16' W 091°08'3 2.8
2015-May-15 22:18N 30°19' W 091°08'6 7.3
2015-May-15 21:31N 30°23' W 091°13'5 5.6
2015-May-15 20:33N 30°28' W 091°12'0 0.0
2015-May-15 19:33N 30°28' W 091°12'0 0.0
2015-May-15 18:34N 30°28' W 091°12'  
Track history (hours):
 
Tides and Currents Weather Stations Pressure Air Temp Water Temp Dewpoint Dewpoint Depression Visibility Wind Speed Wind Dir Waves Ship Positions

Elissa

Owner: Ingram Barge Company, Nashville, TN. More information available from US FCC via Universal Licensing System and Coast Guard Vessel Documentation Center.

Last reported at 2015-May-25 18:21 UTC. Time now 2015-May-26 03:40 UTC.
Position N 29°57' W 090°10'.

Length 26 m; draft 3.6 m.

Type: Towing. MMSI: 367306290.

Date/timePositionNaut miles runAvg speedWind from/ knotsBaromVisibWave heightAir tempDewpointWater temp
2015-May-25 18:21N 29°57' W 090°10'1 0.7
2015-May-25 17:31N 29°57' W 090°10'0 0.0
2015-May-25 16:31N 29°57' W 090°10'0 0.0
2015-May-25 15:33N 29°57' W 090°10'1 0.6
2015-May-25 14:32N 29°57' W 090°10'0 0.0
2015-May-25 13:33N 29°57' W 090°10'0 0.0
2015-May-25 12:33N 29°57' W 090°10'0 0.0
2015-May-25 11:29N 29°57' W 090°10'1 0.8
2015-May-25 10:32N 29°56' W 090°10'58 3.4
2015-May-24 17:31N 30°21' W 091°11'7 6.9
2015-May-24 16:33N 30°27' W 091°12'2 2.0
2015-May-24 15:33N 30°26' W 091°12'0 0.1
2015-May-24 14:33N 30°25' W 091°12'2 2.1
2015-May-24 13:33N 30°27' W 091°12'2 2.0
2015-May-24 12:33N 30°26' W 091°12'3 3.4
2015-May-24 11:33N 30°22' W 091°14'2 2.3
2015-May-24 10:33N 30°21' W 091°12'3 3.2
2015-May-24 09:33N 30°19' W 091°09'4 4.0
2015-May-24 08:32N 30°18' W 091°13'5 2.4
2015-May-24 06:16N 30°16' W 091°08'1 1.9
2015-May-24 05:30N 30°15' W 091°07'53 1.4
2015-May-22 16:29N 29°57' W 090°09'54 4.5
2015-May-22 04:32N 30°16' W 091°07'4 2.8
2015-May-22 03:18N 30°19' W 091°10'4 5.6
2015-May-22 02:32N 30°20' W 091°14'8 7.7
2015-May-22 01:34N 30°28' W 091°12'3 2.9
2015-May-22 00:33N 30°31' W 091°12'1 1.3
2015-May-21 23:33N 30°29' W 091°12'4 3.9
2015-May-21 22:33N 30°25' W 091°12'0 0.0
2015-May-21 21:33N 30°25' W 091°12'2 1.8
2015-May-21 20:33N 30°27' W 091°12'3 3.2
2015-May-21 19:33N 30°24' W 091°13'3 3.3
2015-May-21 18:31N 30°21' W 091°12'58 2.1
2015-May-20 15:18N 29°57' W 090°10'53 2.4
2015-May-19 17:24N 30°16' W 091°07'0 0.1
2015-May-19 15:32N 30°16' W 091°07'3 2.7
2015-May-19 14:22N 30°19' W 091°09'6 7.2
2015-May-19 13:33N 30°23' W 091°14'5 5.1
2015-May-19 12:34N 30°28' W 091°12'1 0.7
2015-May-19 11:33N 30°27' W 091°12'0 0.0
2015-May-19 10:33N 30°27' W 091°12'3 3.1
2015-May-19 09:33N 30°24' W 091°13'4 3.6
2015-May-19 08:33N 30°21' W 091°14'3 3.5
2015-May-19 07:33N 30°21' W 091°10'2 1.8
2015-May-19 06:27N 30°19' W 091°11'4 2.0
2015-May-19 04:22N 30°16' W 091°08'3 3.1
2015-May-19 03:21N 30°13' W 091°09'53 2.9
2015-May-18 09:20N 29°56' W 090°11'3 3.6
2015-May-18 08:33N 29°55' W 090°08'5 4.9
2015-May-18 07:26N 29°57' W 090°02'3 3.4
2015-May-18 06:33N 29°56' W 089°59'4 4.1
2015-May-18 05:32N 29°55' W 090°04'5 5.1
2015-May-18 04:29N 29°57' W 090°10'56 4.7
2015-May-17 16:33N 30°20' W 091°09'6 5.7
2015-May-17 15:33N 30°25' W 091°12'2 2.2
2015-May-17 14:33N 30°27' W 091°12'0 0.0
2015-May-17 13:33N 30°27' W 091°12'2 2.3
2015-May-17 12:33N 30°25' W 091°12'5 4.6
2015-May-17 11:33N 30°20' W 091°14'4 4.4
2015-May-17 10:33N 30°20' W 091°09'4 3.9
2015-May-17 09:27N 30°18' W 091°13'5 3.5
2015-May-17 08:07N 30°16' W 091°08'1 1.6
2015-May-17 07:28N 30°16' W 091°07'53 3.0
2015-May-16 13:26N 29°57' W 090°10'0 0.3
2015-May-16 12:34N 29°57' W 090°10'0 0.0
2015-May-16 11:29N 29°57' W 090°10'0 0.0
2015-May-16 10:32N 29°57' W 090°10'54 4.8
2015-May-15 23:18N 30°16' W 091°08'3 2.8
2015-May-15 22:18N 30°19' W 091°08'6 7.3
2015-May-15 21:31N 30°23' W 091°13'5 5.6
2015-May-15 20:33N 30°28' W 091°12'0 0.0
2015-May-15 19:33N 30°28' W 091°12'0 0.0
2015-May-15 18:34N 30°28' W 091°12'  

Dump ship's entire track history